sensor_id;sensor_type;location;lat;lon;timestamp;temperature;humidity
47791;DHT22;33547;49.044;1.156;2023-08-07T00:00:33;13.40;99.90
47791;DHT22;33547;49.044;1.156;2023-08-07T00:02:59;13.30;99.90
47791;DHT22;33547;49.044;1.156;2023-08-07T00:05:24;13.40;99.90
47791;DHT22;33547;49.044;1.156;2023-08-07T00:07:50;13.40;99.90
47791;DHT22;33547;49.044;1.156;2023-08-07T00:10:16;13.30;99.90
47791;DHT22;33547;49.044;1.156;2023-08-07T00:12:41;13.20;99.90
47791;DHT22;33547;49.044;1.156;2023-08-07T00:15:09;13.20;99.90
47791;DHT22;33547;49.044;1.156;2023-08-07T00:17:34;13.20;99.90
47791;DHT22;33547;49.044;1.156;2023-08-07T00:20:00;13.00;99.90
47791;DHT22;33547;49.044;1.156;2023-08-07T00:22:25;13.10;99.90
47791;DHT22;33547;49.044;1.156;2023-08-07T00:24:51;13.00;99.90
47791;DHT22;33547;49.044;1.156;2023-08-07T00:27:17;13.00;99.90
47791;DHT22;33547;49.044;1.156;2023-08-07T00:29:42;13.00;99.90
47791;DHT22;33547;49.044;1.156;2023-08-07T00:32:08;13.00;99.90
47791;DHT22;33547;49.044;1.156;2023-08-07T00:34:34;12.90;99.90
47791;DHT22;33547;49.044;1.156;2023-08-07T00:37:00;12.90;99.90
47791;DHT22;33547;49.044;1.156;2023-08-07T00:39:25;12.90;99.90
47791;DHT22;33547;49.044;1.156;2023-08-07T00:41:51;12.90;99.90
47791;DHT22;33547;49.044;1.156;2023-08-07T00:44:17;12.90;99.90
47791;DHT22;33547;49.044;1.156;2023-08-07T00:46:43;12.80;99.90
47791;DHT22;33547;49.044;1.156;2023-08-07T00:49:09;12.90;99.90
47791;DHT22;33547;49.044;1.156;2023-08-07T00:51:36;12.80;99.90
47791;DHT22;33547;49.044;1.156;2023-08-07T00:54:03;12.80;99.90
47791;DHT22;33547;49.044;1.156;2023-08-07T00:56:33;12.80;99.90
47791;DHT22;33547;49.044;1.156;2023-08-07T00:58:59;12.70;99.90
47791;DHT22;33547;49.044;1.156;2023-08-07T01:01:26;12.90;99.90
47791;DHT22;33547;49.044;1.156;2023-08-07T01:03:52;13.00;99.90
47791;DHT22;33547;49.044;1.156;2023-08-07T01:06:17;13.20;99.90
47791;DHT22;33547;49.044;1.156;2023-08-07T01:08:44;13.30;99.90
47791;DHT22;33547;49.044;1.156;2023-08-07T01:14:13;13.40;99.90
47791;DHT22;33547;49.044;1.156;2023-08-07T01:17:09;13.40;99.90
47791;DHT22;33547;49.044;1.156;2023-08-07T01:19:36;13.40;99.90
47791;DHT22;33547;49.044;1.156;2023-08-07T01:22:16;13.40;99.90
47791;DHT22;33547;49.044;1.156;2023-08-07T01:24:43;13.40;99.90
47791;DHT22;33547;49.044;1.156;2023-08-07T01:32:31;13.30;99.90
47791;DHT22;33547;49.044;1.156;2023-08-07T01:35:02;13.30;99.90
47791;DHT22;33547;49.044;1.156;2023-08-07T01:37:30;13.20;99.90
47791;DHT22;33547;49.044;1.156;2023-08-07T01:39:58;13.20;99.90
47791;DHT22;33547;49.044;1.156;2023-08-07T01:42:25;13.20;99.90
47791;DHT22;33547;49.044;1.156;2023-08-07T01:44:51;13.20;99.90
47791;DHT22;33547;49.044;1.156;2023-08-07T01:47:17;13.20;99.90
47791;DHT22;33547;49.044;1.156;2023-08-07T01:49:42;13.20;99.90
47791;DHT22;33547;49.044;1.156;2023-08-07T01:52:08;13.10;99.90
47791;DHT22;33547;49.044;1.156;2023-08-07T01:54:34;13.00;99.90
47791;DHT22;33547;49.044;1.156;2023-08-07T01:56:59;12.90;99.90
47791;DHT22;33547;49.044;1.156;2023-08-07T01:59:25;12.90;99.90
47791;DHT22;33547;49.044;1.156;2023-08-07T02:01:51;12.80;99.90
47791;DHT22;33547;49.044;1.156;2023-08-07T02:04:17;12.70;99.90
47791;DHT22;33547;49.044;1.156;2023-08-07T02:06:42;12.70;99.90
47791;DHT22;33547;49.044;1.156;2023-08-07T02:09:08;12.50;99.90
47791;DHT22;33547;49.044;1.156;2023-08-07T02:11:33;12.50;99.90
47791;DHT22;33547;49.044;1.156;2023-08-07T02:13:59;12.50;99.90
47791;DHT22;33547;49.044;1.156;2023-08-07T02:16:24;12.50;99.90
47791;DHT22;33547;49.044;1.156;2023-08-07T02:18:50;12.40;99.90
47791;DHT22;33547;49.044;1.156;2023-08-07T02:21:16;12.40;99.90
47791;DHT22;33547;49.044;1.156;2023-08-07T02:23:41;12.40;99.90
47791;DHT22;33547;49.044;1.156;2023-08-07T02:26:07;12.40;99.90
47791;DHT22;33547;49.044;1.156;2023-08-07T02:28:32;12.40;99.90
47791;DHT22;33547;49.044;1.156;2023-08-07T02:30:58;12.50;99.90
47791;DHT22;33547;49.044;1.156;2023-08-07T02:33:24;12.70;99.90
47791;DHT22;33547;49.044;1.156;2023-08-07T02:35:49;12.80;99.90
47791;DHT22;33547;49.044;1.156;2023-08-07T02:38:16;12.90;99.90
47791;DHT22;33547;49.044;1.156;2023-08-07T02:40:42;13.00;99.90
47791;DHT22;33547;49.044;1.156;2023-08-07T02:43:08;13.00;99.90
47791;DHT22;33547;49.044;1.156;2023-08-07T02:45:34;13.10;99.90
47791;DHT22;33547;49.044;1.156;2023-08-07T02:48:00;13.10;99.90
47791;DHT22;33547;49.044;1.156;2023-08-07T02:50:26;13.10;99.90
47791;DHT22;33547;49.044;1.156;2023-08-07T02:52:53;13.10;99.90
47791;DHT22;33547;49.044;1.156;2023-08-07T02:55:18;13.10;99.90
47791;DHT22;33547;49.044;1.156;2023-08-07T02:57:44;13.10;99.90
47791;DHT22;33547;49.044;1.156;2023-08-07T03:00:10;13.10;99.90
47791;DHT22;33547;49.044;1.156;2023-08-07T03:02:36;13.00;99.90
47791;DHT22;33547;49.044;1.156;2023-08-07T03:05:02;12.90;99.90
47791;DHT22;33547;49.044;1.156;2023-08-07T03:07:28;12.80;99.90
47791;DHT22;33547;49.044;1.156;2023-08-07T03:09:54;12.70;99.90
47791;DHT22;33547;49.044;1.156;2023-08-07T03:12:19;12.60;99.90
47791;DHT22;33547;49.044;1.156;2023-08-07T03:14:45;12.50;99.90
47791;DHT22;33547;49.044;1.156;2023-08-07T03:17:10;12.40;99.90
47791;DHT22;33547;49.044;1.156;2023-08-07T03:19:36;12.20;99.90
47791;DHT22;33547;49.044;1.156;2023-08-07T03:22:02;12.20;99.90
47791;DHT22;33547;49.044;1.156;2023-08-07T03:24:27;11.90;99.90
47791;DHT22;33547;49.044;1.156;2023-08-07T03:26:53;12.00;99.90
47791;DHT22;33547;49.044;1.156;2023-08-07T03:29:19;12.00;99.90
47791;DHT22;33547;49.044;1.156;2023-08-07T03:31:44;12.00;99.90
47791;DHT22;33547;49.044;1.156;2023-08-07T03:34:10;11.90;99.90
47791;DHT22;33547;49.044;1.156;2023-08-07T03:36:35;11.90;99.90
47791;DHT22;33547;49.044;1.156;2023-08-07T03:39:01;11.90;99.90
47791;DHT22;33547;49.044;1.156;2023-08-07T03:41:27;11.90;99.90
47791;DHT22;33547;49.044;1.156;2023-08-07T03:43:53;11.90;99.90
47791;DHT22;33547;49.044;1.156;2023-08-07T03:46:19;11.90;99.90
47791;DHT22;33547;49.044;1.156;2023-08-07T03:48:44;11.90;99.90
47791;DHT22;33547;49.044;1.156;2023-08-07T03:51:10;11.90;99.90
47791;DHT22;33547;49.044;1.156;2023-08-07T03:53:39;11.80;99.90
47791;DHT22;33547;49.044;1.156;2023-08-07T03:56:04;11.80;99.90
47791;DHT22;33547;49.044;1.156;2023-08-07T03:58:30;11.70;99.90
47791;DHT22;33547;49.044;1.156;2023-08-07T04:00:56;11.70;99.90
47791;DHT22;33547;49.044;1.156;2023-08-07T04:03:21;11.70;99.90
47791;DHT22;33547;49.044;1.156;2023-08-07T04:05:51;11.70;99.90
47791;DHT22;33547;49.044;1.156;2023-08-07T04:08:17;11.70;99.90
47791;DHT22;33547;49.044;1.156;2023-08-07T04:10:42;11.70;99.90
47791;DHT22;33547;49.044;1.156;2023-08-07T04:13:08;11.70;99.90
47791;DHT22;33547;49.044;1.156;2023-08-07T04:15:33;11.60;99.90
47791;DHT22;33547;49.044;1.156;2023-08-07T04:17:59;11.60;99.90
47791;DHT22;33547;49.044;1.156;2023-08-07T04:20:25;11.70;99.90
47791;DHT22;33547;49.044;1.156;2023-08-07T04:22:50;11.60;99.90
47791;DHT22;33547;49.044;1.156;2023-08-07T04:25:16;11.50;99.90
47791;DHT22;33547;49.044;1.156;2023-08-07T04:27:41;11.50;99.90
47791;DHT22;33547;49.044;1.156;2023-08-07T04:30:07;11.40;99.90
47791;DHT22;33547;49.044;1.156;2023-08-07T04:32:33;11.40;99.90
47791;DHT22;33547;49.044;1.156;2023-08-07T04:34:59;11.40;99.90
47791;DHT22;33547;49.044;1.156;2023-08-07T04:37:25;11.40;99.90
47791;DHT22;33547;49.044;1.156;2023-08-07T04:39:50;11.40;99.90
47791;DHT22;33547;49.044;1.156;2023-08-07T04:42:16;11.40;99.90
47791;DHT22;33547;49.044;1.156;2023-08-07T04:44:41;11.40;99.90
47791;DHT22;33547;49.044;1.156;2023-08-07T04:47:07;11.40;99.90
47791;DHT22;33547;49.044;1.156;2023-08-07T04:49:33;11.50;99.90
47791;DHT22;33547;49.044;1.156;2023-08-07T04:51:58;11.50;99.90
47791;DHT22;33547;49.044;1.156;2023-08-07T04:54:24;11.50;99.90
47791;DHT22;33547;49.044;1.156;2023-08-07T04:56:49;11.60;99.90
47791;DHT22;33547;49.044;1.156;2023-08-07T04:59:15;11.60;99.90
47791;DHT22;33547;49.044;1.156;2023-08-07T05:01:41;11.60;99.90
47791;DHT22;33547;49.044;1.156;2023-08-07T05:04:06;11.50;99.90
47791;DHT22;33547;49.044;1.156;2023-08-07T05:06:32;11.60;99.90
47791;DHT22;33547;49.044;1.156;2023-08-07T05:08:58;11.60;99.90
47791;DHT22;33547;49.044;1.156;2023-08-07T05:11:23;11.60;99.90
47791;DHT22;33547;49.044;1.156;2023-08-07T05:13:49;11.70;99.90
47791;DHT22;33547;49.044;1.156;2023-08-07T05:16:14;11.70;99.90
47791;DHT22;33547;49.044;1.156;2023-08-07T05:18:40;11.70;99.90
47791;DHT22;33547;49.044;1.156;2023-08-07T05:21:06;11.70;99.90
47791;DHT22;33547;49.044;1.156;2023-08-07T05:23:34;11.80;99.90
47791;DHT22;33547;49.044;1.156;2023-08-07T05:25:59;11.80;99.90
47791;DHT22;33547;49.044;1.156;2023-08-07T05:28:25;11.80;99.90
47791;DHT22;33547;49.044;1.156;2023-08-07T05:30:51;11.90;99.90
47791;DHT22;33547;49.044;1.156;2023-08-07T05:33:16;12.10;99.90
47791;DHT22;33547;49.044;1.156;2023-08-07T05:35:42;12.10;99.90
47791;DHT22;33547;49.044;1.156;2023-08-07T05:38:08;12.30;99.90
47791;DHT22;33547;49.044;1.156;2023-08-07T05:40:33;12.50;99.90
47791;DHT22;33547;49.044;1.156;2023-08-07T05:43:01;12.70;99.90
47791;DHT22;33547;49.044;1.156;2023-08-07T05:45:27;12.90;99.90
47791;DHT22;33547;49.044;1.156;2023-08-07T05:47:53;13.00;99.90
47791;DHT22;33547;49.044;1.156;2023-08-07T05:50:19;13.10;99.90
47791;DHT22;33547;49.044;1.156;2023-08-07T05:52:44;13.20;99.90
47791;DHT22;33547;49.044;1.156;2023-08-07T05:55:10;13.30;99.90
47791;DHT22;33547;49.044;1.156;2023-08-07T05:57:35;13.40;99.90
47791;DHT22;33547;49.044;1.156;2023-08-07T06:00:01;13.50;99.90
47791;DHT22;33547;49.044;1.156;2023-08-07T06:02:27;13.70;99.90
47791;DHT22;33547;49.044;1.156;2023-08-07T06:04:53;13.80;99.90
47791;DHT22;33547;49.044;1.156;2023-08-07T06:07:19;13.80;99.90
47791;DHT22;33547;49.044;1.156;2023-08-07T06:09:45;13.90;99.90
47791;DHT22;33547;49.044;1.156;2023-08-07T06:12:10;14.20;99.90
47791;DHT22;33547;49.044;1.156;2023-08-07T06:14:37;14.30;99.90
47791;DHT22;33547;49.044;1.156;2023-08-07T06:17:03;14.50;99.90
47791;DHT22;33547;49.044;1.156;2023-08-07T06:19:29;14.80;99.90
47791;DHT22;33547;49.044;1.156;2023-08-07T06:21:54;14.90;99.90
47791;DHT22;33547;49.044;1.156;2023-08-07T06:24:20;15.10;99.90
47791;DHT22;33547;49.044;1.156;2023-08-07T06:26:46;15.40;99.90
47791;DHT22;33547;49.044;1.156;2023-08-07T06:29:11;15.70;99.90
47791;DHT22;33547;49.044;1.156;2023-08-07T06:31:37;15.90;99.90
47791;DHT22;33547;49.044;1.156;2023-08-07T06:34:02;16.10;99.90
47791;DHT22;33547;49.044;1.156;2023-08-07T06:36:28;16.20;99.90
47791;DHT22;33547;49.044;1.156;2023-08-07T06:38:54;16.40;99.90
47791;DHT22;33547;49.044;1.156;2023-08-07T06:41:19;16.50;99.90
47791;DHT22;33547;49.044;1.156;2023-08-07T06:43:45;16.60;99.90
47791;DHT22;33547;49.044;1.156;2023-08-07T06:46:11;16.70;99.90
47791;DHT22;33547;49.044;1.156;2023-08-07T06:48:37;16.80;99.90
47791;DHT22;33547;49.044;1.156;2023-08-07T06:51:02;17.20;99.90
47791;DHT22;33547;49.044;1.156;2023-08-07T06:53:28;17.70;99.90
47791;DHT22;33547;49.044;1.156;2023-08-07T06:55:53;17.80;99.90
47791;DHT22;33547;49.044;1.156;2023-08-07T06:58:19;18.00;99.90
47791;DHT22;33547;49.044;1.156;2023-08-07T07:00:45;18.10;99.90
47791;DHT22;33547;49.044;1.156;2023-08-07T07:03:11;18.30;99.90
47791;DHT22;33547;49.044;1.156;2023-08-07T07:05:37;18.60;99.90
47791;DHT22;33547;49.044;1.156;2023-08-07T07:08:03;18.70;99.90
47791;DHT22;33547;49.044;1.156;2023-08-07T07:10:28;18.70;99.90
47791;DHT22;33547;49.044;1.156;2023-08-07T07:12:54;18.70;99.90
47791;DHT22;33547;49.044;1.156;2023-08-07T07:15:20;18.40;99.90
47791;DHT22;33547;49.044;1.156;2023-08-07T07:17:46;18.20;99.90
47791;DHT22;33547;49.044;1.156;2023-08-07T07:20:12;18.30;99.90
47791;DHT22;33547;49.044;1.156;2023-08-07T07:22:38;18.80;99.90
47791;DHT22;33547;49.044;1.156;2023-08-07T07:25:04;18.90;99.90
47791;DHT22;33547;49.044;1.156;2023-08-07T07:27:30;19.20;99.90
47791;DHT22;33547;49.044;1.156;2023-08-07T07:29:55;19.40;99.90
47791;DHT22;33547;49.044;1.156;2023-08-07T07:32:21;19.60;99.90
47791;DHT22;33547;49.044;1.156;2023-08-07T07:34:46;20.00;99.90
47791;DHT22;33547;49.044;1.156;2023-08-07T07:37:13;20.00;99.90
47791;DHT22;33547;49.044;1.156;2023-08-07T07:39:39;19.90;99.90
47791;DHT22;33547;49.044;1.156;2023-08-07T07:42:06;19.20;99.90
47791;DHT22;33547;49.044;1.156;2023-08-07T07:44:32;19.20;99.90
47791;DHT22;33547;49.044;1.156;2023-08-07T07:46:58;19.30;99.90
47791;DHT22;33547;49.044;1.156;2023-08-07T07:49:24;19.70;99.90
47791;DHT22;33547;49.044;1.156;2023-08-07T07:51:50;20.00;99.90
47791;DHT22;33547;49.044;1.156;2023-08-07T07:54:15;20.20;99.90
47791;DHT22;33547;49.044;1.156;2023-08-07T07:56:42;20.40;99.90
47791;DHT22;33547;49.044;1.156;2023-08-07T07:59:08;20.60;99.90
47791;DHT22;33547;49.044;1.156;2023-08-07T08:01:34;20.50;99.90
47791;DHT22;33547;49.044;1.156;2023-08-07T08:03:59;20.70;99.90
47791;DHT22;33547;49.044;1.156;2023-08-07T08:06:25;21.30;99.90
47791;DHT22;33547;49.044;1.156;2023-08-07T08:08:51;21.00;99.90
47791;DHT22;33547;49.044;1.156;2023-08-07T08:11:16;22.10;99.90
47791;DHT22;33547;49.044;1.156;2023-08-07T08:13:42;23.20;99.90
47791;DHT22;33547;49.044;1.156;2023-08-07T08:16:08;23.00;99.90
47791;DHT22;33547;49.044;1.156;2023-08-07T08:18:33;23.40;99.90
47791;DHT22;33547;49.044;1.156;2023-08-07T08:20:59;23.80;99.90
47791;DHT22;33547;49.044;1.156;2023-08-07T08:23:24;24.20;99.90
47791;DHT22;33547;49.044;1.156;2023-08-07T08:25:50;24.60;99.90
47791;DHT22;33547;49.044;1.156;2023-08-07T08:28:17;24.70;99.90
47791;DHT22;33547;49.044;1.156;2023-08-07T08:30:43;24.50;99.90
47791;DHT22;33547;49.044;1.156;2023-08-07T08:33:09;24.20;99.90
47791;DHT22;33547;49.044;1.156;2023-08-07T08:35:37;23.40;99.90
47791;DHT22;33547;49.044;1.156;2023-08-07T08:38:03;23.60;99.90
47791;DHT22;33547;49.044;1.156;2023-08-07T08:40:30;25.00;99.90
47791;DHT22;33547;49.044;1.156;2023-08-07T08:42:56;25.00;99.90
47791;DHT22;33547;49.044;1.156;2023-08-07T08:45:26;24.10;99.90
47791;DHT22;33547;49.044;1.156;2023-08-07T08:47:55;25.20;99.90
47791;DHT22;33547;49.044;1.156;2023-08-07T08:50:23;25.20;99.90
47791;DHT22;33547;49.044;1.156;2023-08-07T08:52:51;26.20;99.90
47791;DHT22;33547;49.044;1.156;2023-08-07T08:55:20;24.40;99.90
47791;DHT22;33547;49.044;1.156;2023-08-07T08:57:46;24.80;99.90
47791;DHT22;33547;49.044;1.156;2023-08-07T09:00:14;26.00;99.90
47791;DHT22;33547;49.044;1.156;2023-08-07T09:02:45;26.50;99.90
47791;DHT22;33547;49.044;1.156;2023-08-07T09:05:11;25.70;99.90
47791;DHT22;33547;49.044;1.156;2023-08-07T09:07:37;24.30;99.90
47791;DHT22;33547;49.044;1.156;2023-08-07T09:10:03;24.00;99.90
47791;DHT22;33547;49.044;1.156;2023-08-07T09:12:31;23.40;99.90
47791;DHT22;33547;49.044;1.156;2023-08-07T09:14:58;22.60;99.90
47791;DHT22;33547;49.044;1.156;2023-08-07T09:17:31;23.40;99.90
47791;DHT22;33547;49.044;1.156;2023-08-07T09:19:57;23.30;99.90
47791;DHT22;33547;49.044;1.156;2023-08-07T09:22:23;22.60;99.90
47791;DHT22;33547;49.044;1.156;2023-08-07T09:24:49;24.10;99.90
47791;DHT22;33547;49.044;1.156;2023-08-07T09:27:15;25.60;99.90
47791;DHT22;33547;49.044;1.156;2023-08-07T09:29:41;25.40;99.90
47791;DHT22;33547;49.044;1.156;2023-08-07T09:32:17;26.20;99.90
47791;DHT22;33547;49.044;1.156;2023-08-07T09:34:44;26.70;99.90
47791;DHT22;33547;49.044;1.156;2023-08-07T09:37:09;26.60;99.80
47791;DHT22;33547;49.044;1.156;2023-08-07T09:39:38;28.30;99.40
47791;DHT22;33547;49.044;1.156;2023-08-07T09:42:04;27.70;98.20
47791;DHT22;33547;49.044;1.156;2023-08-07T09:44:37;28.60;97.50
47791;DHT22;33547;49.044;1.156;2023-08-07T09:47:13;28.20;96.90
47791;DHT22;33547;49.044;1.156;2023-08-07T09:49:42;27.60;98.10
47791;DHT22;33547;49.044;1.156;2023-08-07T09:52:09;27.60;96.60
47791;DHT22;33547;49.044;1.156;2023-08-07T09:54:36;26.10;98.70
47791;DHT22;33547;49.044;1.156;2023-08-07T09:57:02;24.80;99.60
47791;DHT22;33547;49.044;1.156;2023-08-07T09:59:29;26.20;98.80
47791;DHT22;33547;49.044;1.156;2023-08-07T10:01:55;27.00;98.00
47791;DHT22;33547;49.044;1.156;2023-08-07T10:04:25;27.90;96.90
47791;DHT22;33547;49.044;1.156;2023-08-07T10:06:51;28.10;96.90
47791;DHT22;33547;49.044;1.156;2023-08-07T10:09:18;28.30;96.80
47791;DHT22;33547;49.044;1.156;2023-08-07T10:11:43;26.50;97.10
47791;DHT22;33547;49.044;1.156;2023-08-07T10:14:09;26.90;97.20
47791;DHT22;33547;49.044;1.156;2023-08-07T10:16:36;27.70;95.90
47791;DHT22;33547;49.044;1.156;2023-08-07T10:19:05;28.40;95.30
47791;DHT22;33547;49.044;1.156;2023-08-07T10:21:34;26.70;96.70
47791;DHT22;33547;49.044;1.156;2023-08-07T10:24:04;25.80;96.70
47791;DHT22;33547;49.044;1.156;2023-08-07T10:26:30;25.50;97.50
47791;DHT22;33547;49.044;1.156;2023-08-07T10:28:58;26.10;96.90
47791;DHT22;33547;49.044;1.156;2023-08-07T10:31:26;26.20;97.00
47791;DHT22;33547;49.044;1.156;2023-08-07T10:33:52;27.20;97.20
47791;DHT22;33547;49.044;1.156;2023-08-07T10:36:18;25.60;97.20
47791;DHT22;33547;49.044;1.156;2023-08-07T10:38:47;26.60;96.80
47791;DHT22;33547;49.044;1.156;2023-08-07T10:41:14;27.10;96.20
47791;DHT22;33547;49.044;1.156;2023-08-07T10:43:44;25.80;97.20
47791;DHT22;33547;49.044;1.156;2023-08-07T10:46:16;24.30;97.50
47791;DHT22;33547;49.044;1.156;2023-08-07T10:48:46;24.90;99.30
47791;DHT22;33547;49.044;1.156;2023-08-07T10:51:17;27.00;97.90
47791;DHT22;33547;49.044;1.156;2023-08-07T10:53:45;27.90;95.40
47791;DHT22;33547;49.044;1.156;2023-08-07T10:56:16;28.40;94.90
47791;DHT22;33547;49.044;1.156;2023-08-07T10:58:42;27.60;94.60
47791;DHT22;33547;49.044;1.156;2023-08-07T11:03:57;27.50;94.00
47791;DHT22;33547;49.044;1.156;2023-08-07T11:06:26;26.60;94.00
47791;DHT22;33547;49.044;1.156;2023-08-07T11:08:52;26.30;94.50
47791;DHT22;33547;49.044;1.156;2023-08-07T11:11:18;27.00;93.60
47791;DHT22;33547;49.044;1.156;2023-08-07T11:13:44;28.40;92.70
47791;DHT22;33547;49.044;1.156;2023-08-07T11:16:10;29.20;94.00
47791;DHT22;33547;49.044;1.156;2023-08-07T11:18:37;27.90;92.50
47791;DHT22;33547;49.044;1.156;2023-08-07T11:21:09;26.20;93.40
47791;DHT22;33547;49.044;1.156;2023-08-07T11:23:39;25.60;94.80
47791;DHT22;33547;49.044;1.156;2023-08-07T11:26:05;26.00;95.10
47791;DHT22;33547;49.044;1.156;2023-08-07T11:28:31;26.30;95.90
47791;DHT22;33547;49.044;1.156;2023-08-07T11:30:57;27.00;95.70
47791;DHT22;33547;49.044;1.156;2023-08-07T11:33:24;27.20;94.30
47791;DHT22;33547;49.044;1.156;2023-08-07T11:35:51;28.20;94.00
47791;DHT22;33547;49.044;1.156;2023-08-07T11:38:32;28.30;94.40
47791;DHT22;33547;49.044;1.156;2023-08-07T11:41:00;27.70;93.20
47791;DHT22;33547;49.044;1.156;2023-08-07T11:43:29;28.00;94.10
47791;DHT22;33547;49.044;1.156;2023-08-07T11:45:57;27.70;91.80
47791;DHT22;33547;49.044;1.156;2023-08-07T11:48:26;26.50;94.70
47791;DHT22;33547;49.044;1.156;2023-08-07T11:50:53;26.40;94.70
47791;DHT22;33547;49.044;1.156;2023-08-07T11:53:20;27.50;95.00
47791;DHT22;33547;49.044;1.156;2023-08-07T11:56:07;26.50;95.00
47791;DHT22;33547;49.044;1.156;2023-08-07T11:58:39;26.30;94.80
47791;DHT22;33547;49.044;1.156;2023-08-07T12:01:12;25.90;95.20
47791;DHT22;33547;49.044;1.156;2023-08-07T12:03:40;26.30;94.40
47791;DHT22;33547;49.044;1.156;2023-08-07T12:06:07;26.50;94.30
47791;DHT22;33547;49.044;1.156;2023-08-07T12:08:37;26.50;95.40
47791;DHT22;33547;49.044;1.156;2023-08-07T12:11:08;26.40;93.70
47791;DHT22;33547;49.044;1.156;2023-08-07T12:13:37;26.20;92.70
47791;DHT22;33547;49.044;1.156;2023-08-07T12:16:03;26.40;93.80
47791;DHT22;33547;49.044;1.156;2023-08-07T12:18:30;26.80;94.80
47791;DHT22;33547;49.044;1.156;2023-08-07T12:21:05;26.90;95.10
47791;DHT22;33547;49.044;1.156;2023-08-07T12:23:36;26.50;93.90
47791;DHT22;33547;49.044;1.156;2023-08-07T12:26:03;26.80;93.70
47791;DHT22;33547;49.044;1.156;2023-08-07T12:28:29;26.50;92.90
47791;DHT22;33547;49.044;1.156;2023-08-07T12:30:56;26.40;93.40
47791;DHT22;33547;49.044;1.156;2023-08-07T12:33:21;26.30;92.50
47791;DHT22;33547;49.044;1.156;2023-08-07T12:35:47;26.30;92.20
47791;DHT22;33547;49.044;1.156;2023-08-07T12:38:13;26.80;92.00
47791;DHT22;33547;49.044;1.156;2023-08-07T12:40:40;26.30;93.40
47791;DHT22;33547;49.044;1.156;2023-08-07T12:43:06;25.90;93.00
47791;DHT22;33547;49.044;1.156;2023-08-07T12:45:32;25.40;93.70
47791;DHT22;33547;49.044;1.156;2023-08-07T12:47:59;25.50;93.40
47791;DHT22;33547;49.044;1.156;2023-08-07T12:50:25;25.90;93.60
47791;DHT22;33547;49.044;1.156;2023-08-07T12:52:50;26.00;93.60
47791;DHT22;33547;49.044;1.156;2023-08-07T12:55:16;25.60;93.40
47791;DHT22;33547;49.044;1.156;2023-08-07T12:57:43;25.50;94.10
47791;DHT22;33547;49.044;1.156;2023-08-07T13:00:13;25.30;94.50
47791;DHT22;33547;49.044;1.156;2023-08-07T13:02:43;25.30;94.60
47791;DHT22;33547;49.044;1.156;2023-08-07T13:05:09;25.00;94.80
47791;DHT22;33547;49.044;1.156;2023-08-07T13:07:36;24.80;94.40
47791;DHT22;33547;49.044;1.156;2023-08-07T13:10:04;25.00;94.80
47791;DHT22;33547;49.044;1.156;2023-08-07T13:12:30;24.50;94.00
47791;DHT22;33547;49.044;1.156;2023-08-07T13:14:59;24.40;94.70
47791;DHT22;33547;49.044;1.156;2023-08-07T13:17:25;24.00;94.20
47791;DHT22;33547;49.044;1.156;2023-08-07T13:19:51;24.00;94.60
47791;DHT22;33547;49.044;1.156;2023-08-07T13:22:16;23.80;94.60
47791;DHT22;33547;49.044;1.156;2023-08-07T13:24:42;23.80;95.50
47791;DHT22;33547;49.044;1.156;2023-08-07T13:27:08;23.50;96.10
47791;DHT22;33547;49.044;1.156;2023-08-07T13:29:34;23.60;95.60
47791;DHT22;33547;49.044;1.156;2023-08-07T13:32:00;23.50;95.80
47791;DHT22;33547;49.044;1.156;2023-08-07T13:34:25;23.80;95.80
47791;DHT22;33547;49.044;1.156;2023-08-07T13:36:51;24.00;96.10
47791;DHT22;33547;49.044;1.156;2023-08-07T13:39:17;23.90;95.50
47791;DHT22;33547;49.044;1.156;2023-08-07T13:41:42;23.90;95.40
47791;DHT22;33547;49.044;1.156;2023-08-07T13:44:08;24.10;95.70
47791;DHT22;33547;49.044;1.156;2023-08-07T13:46:33;24.10;96.20
47791;DHT22;33547;49.044;1.156;2023-08-07T13:48:59;23.90;95.80
47791;DHT22;33547;49.044;1.156;2023-08-07T13:51:25;23.90;95.50
47791;DHT22;33547;49.044;1.156;2023-08-07T13:53:51;23.70;94.10
47791;DHT22;33547;49.044;1.156;2023-08-07T13:56:18;23.70;95.80
47791;DHT22;33547;49.044;1.156;2023-08-07T13:58:43;23.90;94.20
47791;DHT22;33547;49.044;1.156;2023-08-07T14:01:09;23.70;94.80
47791;DHT22;33547;49.044;1.156;2023-08-07T14:03:35;23.90;95.70
47791;DHT22;33547;49.044;1.156;2023-08-07T14:06:01;24.00;95.90
47791;DHT22;33547;49.044;1.156;2023-08-07T14:08:26;23.90;95.50
47791;DHT22;33547;49.044;1.156;2023-08-07T14:10:52;23.80;94.90
47791;DHT22;33547;49.044;1.156;2023-08-07T14:13:17;24.00;95.60
47791;DHT22;33547;49.044;1.156;2023-08-07T14:15:43;24.30;94.80
47791;DHT22;33547;49.044;1.156;2023-08-07T14:18:09;24.20;95.20
47791;DHT22;33547;49.044;1.156;2023-08-07T14:20:36;24.30;95.70
47791;DHT22;33547;49.044;1.156;2023-08-07T14:23:02;24.50;95.90
47791;DHT22;33547;49.044;1.156;2023-08-07T14:25:28;24.60;95.50
47791;DHT22;33547;49.044;1.156;2023-08-07T14:27:53;24.40;94.60
47791;DHT22;33547;49.044;1.156;2023-08-07T14:30:19;24.20;93.50
47791;DHT22;33547;49.044;1.156;2023-08-07T14:32:45;24.10;95.10
47791;DHT22;33547;49.044;1.156;2023-08-07T14:35:12;24.00;94.20
47791;DHT22;33547;49.044;1.156;2023-08-07T14:37:39;24.00;94.90
47791;DHT22;33547;49.044;1.156;2023-08-07T14:40:05;24.10;95.40
47791;DHT22;33547;49.044;1.156;2023-08-07T14:42:32;24.10;93.80
47791;DHT22;33547;49.044;1.156;2023-08-07T14:44:58;24.20;93.80
47791;DHT22;33547;49.044;1.156;2023-08-07T14:47:24;24.40;94.10
47791;DHT22;33547;49.044;1.156;2023-08-07T14:49:50;24.50;93.50
47791;DHT22;33547;49.044;1.156;2023-08-07T14:52:16;24.50;93.80
47791;DHT22;33547;49.044;1.156;2023-08-07T14:54:42;24.30;94.50
47791;DHT22;33547;49.044;1.156;2023-08-07T14:57:07;24.10;94.50
47791;DHT22;33547;49.044;1.156;2023-08-07T14:59:33;24.20;95.50
47791;DHT22;33547;49.044;1.156;2023-08-07T15:01:59;24.10;92.70
47791;DHT22;33547;49.044;1.156;2023-08-07T15:04:24;23.80;94.20
47791;DHT22;33547;49.044;1.156;2023-08-07T15:06:50;23.70;94.10
47791;DHT22;33547;49.044;1.156;2023-08-07T15:09:16;23.60;93.60
47791;DHT22;33547;49.044;1.156;2023-08-07T15:11:47;23.40;93.40
47791;DHT22;33547;49.044;1.156;2023-08-07T15:14:13;23.70;94.80
47791;DHT22;33547;49.044;1.156;2023-08-07T15:16:39;23.70;93.80
47791;DHT22;33547;49.044;1.156;2023-08-07T15:19:05;23.80;93.70
47791;DHT22;33547;49.044;1.156;2023-08-07T15:21:31;23.70;93.80
47791;DHT22;33547;49.044;1.156;2023-08-07T15:23:56;23.90;94.40
47791;DHT22;33547;49.044;1.156;2023-08-07T15:26:22;23.80;92.80
47791;DHT22;33547;49.044;1.156;2023-08-07T15:28:48;23.70;93.30
47791;DHT22;33547;49.044;1.156;2023-08-07T15:31:13;23.50;94.10
47791;DHT22;33547;49.044;1.156;2023-08-07T15:33:39;23.50;94.30
47791;DHT22;33547;49.044;1.156;2023-08-07T15:36:05;23.40;94.40